createdAt,value
2024-03-12T00:01:50.178Z,3.77
2024-03-12T00:16:40.977Z,3.87
2024-03-12T00:31:33.093Z,5.07
2024-03-12T00:46:24.811Z,2.84
2024-03-12T01:01:16.865Z,3.41
2024-03-12T01:16:08.776Z,4.24
2024-03-12T02:31:18.116Z,3.70
2024-03-12T03:15:25.899Z,3.33
2024-03-12T06:14:37.332Z,5.31
2024-03-12T06:29:27.761Z,4.81
2024-03-12T06:44:19.059Z,5.63
2024-03-12T06:59:10.409Z,3.64
2024-03-12T07:14:02.090Z,5.34
2024-03-12T07:28:53.406Z,3.17
2024-03-12T07:43:44.285Z,5.03
2024-03-12T07:58:38.530Z,3.46
2024-03-12T08:13:29.345Z,4.33
2024-03-12T08:28:19.857Z,4.14
2024-03-12T08:43:11.408Z,5.19
2024-03-12T08:58:03.302Z,4.21
2024-03-12T09:12:56.293Z,5.44
2024-03-12T09:27:47.573Z,7.20
2024-03-12T09:42:38.356Z,8.14
2024-03-12T09:57:28.811Z,6.88
2024-03-12T10:12:19.184Z,8.02
2024-03-12T10:27:10.308Z,8.09
2024-03-12T10:42:01.423Z,9.22
2024-03-12T10:56:51.721Z,9.87
2024-03-12T11:11:43.381Z,11.79
2024-03-12T11:26:36.623Z,11.98
2024-03-12T11:41:26.002Z,16.92
2024-03-12T11:56:17.265Z,17.78
2024-03-12T12:11:13.582Z,19.54
2024-03-12T12:26:08.924Z,24.92
2024-03-12T12:41:01.944Z,25.13
2024-03-12T12:55:58.112Z,28.99
2024-03-12T13:10:58.039Z,22.51
2024-03-12T13:25:53.820Z,18.67
2024-03-12T13:40:46.141Z,26.20
2024-03-12T13:55:37.066Z,25.67
2024-03-12T14:10:28.612Z,25.11
2024-03-12T14:25:19.281Z,34.42
2024-03-12T14:40:12.223Z,24.94
2024-03-12T14:55:04.194Z,31.03
2024-03-12T15:09:56.799Z,24.77
2024-03-12T15:24:49.265Z,35.19
2024-03-12T15:39:40.270Z,32.74
2024-03-12T15:54:30.655Z,19.60
2024-03-12T16:09:21.155Z,26.69
2024-03-12T16:24:12.465Z,29.09
2024-03-12T16:39:03.767Z,29.00
2024-03-12T16:53:55.058Z,29.28
2024-03-12T17:08:46.775Z,26.03
2024-03-12T17:23:37.888Z,26.14
2024-03-12T19:39:05.775Z,27.99
2024-03-12T19:53:59.310Z,25.01
2024-03-12T20:08:51.618Z,23.69
2024-03-12T20:23:43.329Z,26.90
2024-03-12T20:38:35.461Z,17.14
2024-03-12T20:53:26.910Z,15.58
2024-03-12T21:08:18.506Z,19.77
2024-03-12T21:23:10.240Z,13.36
2024-03-12T21:38:02.346Z,10.69
2024-03-12T21:52:54.841Z,9.89
2024-03-12T22:07:45.856Z,6.14
2024-03-12T22:22:40.593Z,5.99
2024-03-12T22:37:34.879Z,4.97
2024-03-12T22:52:28.692Z,3.48
2024-03-12T23:07:21.181Z,2.88
2024-03-12T23:22:12.532Z,2.59
2024-03-12T23:37:03.813Z,2.41
2024-03-12T23:51:54.733Z,1.82
